Time,TemperatureF,DewpointF,PressureIn,WindDirection,WindDirectionDegrees,WindSpeedMPH,WindSpeedGustMPH,Humidity,HourlyPrecipIn,Conditions,Clouds,dailyrainin,SoftwareType,DateUTC
2014-01-06 00:01:00,31.7,28.6,29.62,ESE,114,0.0,0.0,88,0.00,,OVC080,0.00,VWS V14.00,2014-01-06 05:01:00,
2014-01-06 00:03:00,31.9,28.8,29.62,ESE,114,0.0,0.0,88,0.00,,OVC080,0.00,VWS V14.00,2014-01-06 05:03:00,
2014-01-06 00:04:00,31.9,28.8,29.62,ESE,114,0.0,0.0,88,0.00,,OVC080,0.00,VWS V14.00,2014-01-06 05:04:00,
2014-01-06 00:09:00,31.9,28.8,29.62,East,96,0.0,0.0,88,0.00,,OVC080,0.00,VWS V14.00,2014-01-06 05:09:00,
2014-01-06 00:14:00,31.9,29.1,29.59,SSE,167,0.0,0.0,89,0.00,,OVC080,0.00,VWS V14.00,2014-01-06 05:14:00,
2014-01-06 00:19:00,32.1,29.2,29.59,SSW,203,3.9,4.8,89,0.00,,OVC080,0.00,VWS V14.00,2014-01-06 05:19:00,
2014-01-06 00:24:00,32.1,29.2,29.59,SSW,203,0.0,0.0,89,0.00,,OVC080,0.00,VWS V14.00,2014-01-06 05:24:00,
2014-01-06 00:29:00,32.3,29.4,29.59,SSW,203,0.0,0.0,89,0.00,,OVC080,0.00,VWS V14.00,2014-01-06 05:29:00,
2014-01-06 00:34:00,32.3,29.7,29.59,SSW,203,0.0,3.2,90,0.00,,OVC080,0.00,VWS V14.00,2014-01-06 05:34:00,
2014-01-06 00:40:00,32.1,29.5,29.59,SSW,203,0.0,0.0,90,0.00,,OVC080,0.00,VWS V14.00,2014-01-06 05:40:00,
2014-01-06 00:45:00,32.3,29.4,29.59,SW,230,0.0,0.0,89,0.00,,OVC080,0.00,VWS V14.00,2014-01-06 05:45:00,
2014-01-06 00:50:00,32.1,29.2,29.59,SW,231,0.0,0.0,89,0.00,,OVC080,0.00,VWS V14.00,2014-01-06 05:50:00,
2014-01-06 00:55:00,32.1,29.2,29.59,SSW,213,0.0,0.0,89,0.00,,OVC080,0.00,VWS V14.00,2014-01-06 05:55:00,
2014-01-06 01:00:00,32.1,29.2,29.56,SSW,213,0.0,0.0,89,0.00,,OVC080,0.00,VWS V14.00,2014-01-06 06:00:00,
2014-01-06 01:05:00,32.3,29.4,29.56,SSW,213,0.0,0.0,89,0.00,,-RA,0.00,VWS V14.00,2014-01-06 06:05:00,
2014-01-06 01:10:00,32.3,29.4,29.56,SSW,213,0.0,0.0,89,0.00,,-RA,0.00,VWS V14.00,2014-01-06 06:10:00,
2014-01-06 01:15:00,32.1,29.2,29.56,ESE,104,0.0,0.0,89,0.00,,-RA,0.00,VWS V14.00,2014-01-06 06:15:00,
2014-01-06 01:20:00,32.3,29.7,29.56,ENE,68,0.0,0.0,90,0.00,,-RA,0.00,VWS V14.00,2014-01-06 06:20:00,
2014-01-06 01:25:00,32.3,30.0,29.56,ENE,74,0.0,0.0,91,0.00,,-RA,0.00,VWS V14.00,2014-01-06 06:25:00,
2014-01-06 01:30:00,32.5,29.9,29.53,ENE,74,0.0,0.0,90,0.00,,-RA,0.00,VWS V14.00,2014-01-06 06:30:00,
2014-01-06 01:35:00,32.5,29.9,29.53,ENE,74,0.0,0.0,90,0.00,,-RA,0.00,VWS V14.00,2014-01-06 06:35:00,
2014-01-06 01:40:00,32.5,29.9,29.53,ENE,74,0.0,0.0,90,0.00,,-RA,0.00,VWS V14.00,2014-01-06 06:40:00,
2014-01-06 01:45:00,32.5,29.6,29.53,ENE,74,0.0,0.0,89,0.00,,-RA,0.00,VWS V14.00,2014-01-06 06:45:00,
2014-01-06 01:50:00,32.5,29.9,29.53,ENE,74,0.0,0.0,90,0.00,,-RA,0.00,VWS V14.00,2014-01-06 06:50:00,
2014-01-06 01:56:00,32.7,30.1,29.53,ENE,74,0.0,0.0,90,0.00,,-RA,0.00,VWS V14.00,2014-01-06 06:56:00,
2014-01-06 02:01:00,32.7,30.3,29.53,ENE,74,0.0,0.0,91,0.00,,RA,0.00,VWS V14.00,2014-01-06 07:01:00,
2014-01-06 02:06:00,32.7,30.9,29.53,East,101,0.0,0.0,93,0.00,,RA,0.00,VWS V14.00,2014-01-06 07:06:00,
2014-01-06 02:11:00,33.0,31.5,29.53,ESE,108,0.0,0.0,94,0.00,,RA,0.00,VWS V14.00,2014-01-06 07:11:00,
2014-01-06 02:16:00,32.8,31.6,29.53,ESE,108,0.0,0.0,95,0.00,,RA,0.00,VWS V14.00,2014-01-06 07:16:00,
2014-01-06 02:21:00,32.7,31.4,29.53,ESE,108,0.0,0.0,95,0.00,,RA,0.00,VWS V14.00,2014-01-06 07:21:00,
2014-01-06 02:26:00,33.0,32.0,29.53,ESE,108,0.0,0.0,96,0.00,,RA,0.00,VWS V14.00,2014-01-06 07:26:00,
2014-01-06 02:31:00,32.8,31.8,29.53,ESE,108,0.0,0.0,96,0.00,,RA,0.00,VWS V14.00,2014-01-06 07:31:00,
2014-01-06 02:36:00,33.0,32.0,29.53,ESE,108,0.0,0.0,96,0.00,,RA,0.00,VWS V14.00,2014-01-06 07:36:00,
2014-01-06 02:41:00,33.0,32.0,29.53,ESE,108,0.0,0.0,96,0.00,,RA,0.00,VWS V14.00,2014-01-06 07:41:00,
2014-01-06 02:46:00,32.8,31.8,29.53,WNW,283,0.0,0.0,96,0.00,,RA,0.00,VWS V14.00,2014-01-06 07:46:00,
2014-01-06 02:51:00,32.7,31.4,29.53,WNW,295,0.0,3.2,95,0.03,,RA,0.03,VWS V14.00,2014-01-06 07:51:00,
2014-01-06 02:56:00,33.8,32.7,29.53,SW,234,8.9,9.7,96,0.04,,RA,0.04,VWS V14.00,2014-01-06 07:56:00,
2014-01-06 03:01:00,35.4,34.9,29.53,SSW,201,4.4,5.9,98,0.05,,-RA,0.05,VWS V14.00,2014-01-06 08:01:00,
2014-01-06 03:06:00,36.9,36.4,29.53,West,267,14.0,15.3,98,0.05,,-RA,0.05,VWS V14.00,2014-01-06 08:06:00,
2014-01-06 03:12:00,37.6,37.1,29.53,SW,234,5.9,7.0,98,0.05,,-RA,0.05,VWS V14.00,2014-01-06 08:12:00,
2014-01-06 03:17:00,37.6,37.1,29.56,West,272,5.9,11.5,98,0.05,,,0.05,VWS V14.00,2014-01-06 08:17:00,
2014-01-06 03:22:00,37.6,37.1,29.56,WNW,291,6.9,7.5,98,0.05,,,0.05,VWS V14.00,2014-01-06 08:22:00,
2014-01-06 03:27:00,37.8,37.3,29.56,WSW,244,11.6,12.6,98,0.05,,,0.05,VWS V14.00,2014-01-06 08:27:00,
2014-01-06 03:32:00,37.6,36.0,29.59,SW,233,4.4,4.8,94,0.05,,,0.05,VWS V14.00,2014-01-06 08:32:00,
2014-01-06 03:37:00,37.8,34.9,29.59,South,169,14.0,20.9,89,0.05,,,0.05,VWS V14.00,2014-01-06 08:37:00,
2014-01-06 03:42:00,37.6,33.8,29.59,WSW,244,12.1,13.2,86,0.05,,,0.05,VWS V14.00,2014-01-06 08:42:00,
2014-01-06 03:47:00,37.2,32.6,29.62,SSW,197,3.4,9.7,83,0.05,,,0.05,VWS V14.00,2014-01-06 08:47:00,
2014-01-06 03:52:00,37.1,32.1,29.62,SW,214,3.4,7.0,82,0.02,,,0.05,VWS V14.00,2014-01-06 08:52:00,
2014-01-06 03:57:00,37.1,32.1,29.62,SW,230,5.9,13.2,82,0.01,,,0.05,VWS V14.00,2014-01-06 08:57:00,
2014-01-06 04:02:00,36.9,31.6,29.62,SSE,166,3.0,10.5,81,0.00,,,0.05,VWS V14.00,2014-01-06 09:02:00,
2014-01-06 04:07:00,36.7,31.1,29.62,NW,309,8.9,12.1,80,0.00,,,0.05,VWS V14.00,2014-01-06 09:07:00,
2014-01-06 04:12:00,36.3,30.8,29.62,NW,322,4.4,7.0,80,0.00,,,0.05,VWS V14.00,2014-01-06 09:12:00,
2014-01-06 04:17:00,36.0,30.1,29.62,SW,223,3.4,6.4,79,0.00,,,0.05,VWS V14.00,2014-01-06 09:17:00,
2014-01-06 04:22:00,35.8,29.6,29.62,South,189,2.5,7.0,78,0.00,,,0.05,VWS V14.00,2014-01-06 09:22:00,
2014-01-06 04:27:00,35.6,29.1,29.62,WSW,255,8.9,9.7,77,0.00,,,0.05,VWS V14.00,2014-01-06 09:27:00,
2014-01-06 04:33:00,35.4,28.6,29.62,NW,310,9.1,9.9,76,0.00,,,0.05,VWS V14.00,2014-01-06 09:33:00,
2014-01-06 04:38:00,34.9,28.1,29.62,West,266,3.9,10.5,76,0.00,,,0.05,VWS V14.00,2014-01-06 09:38:00,
2014-01-06 04:43:00,34.7,27.2,29.62,WNW,287,8.4,9.9,74,0.00,,,0.05,VWS V14.00,2014-01-06 09:43:00,
2014-01-06 04:48:00,34.3,26.9,29.62,WSW,239,8.9,10.5,74,0.00,,,0.05,VWS V14.00,2014-01-06 09:48:00,
2014-01-06 04:53:00,34.1,26.4,29.62,West,275,5.9,13.2,73,0.00,,,0.05,VWS V14.00,2014-01-06 09:53:00,
2014-01-06 04:58:00,33.9,26.2,29.62,West,261,11.1,12.1,73,0.00,,,0.05,VWS V14.00,2014-01-06 09:58:00,
2014-01-06 05:03:00,33.6,24.5,29.62,West,274,13.5,15.8,69,0.00,,,0.05,VWS V14.00,2014-01-06 10:03:00,
2014-01-06 05:08:00,33.2,22.7,29.62,West,278,14.0,17.4,65,0.00,,,0.05,VWS V14.00,2014-01-06 10:08:00,
2014-01-06 05:13:00,33.0,22.2,29.62,WSW,245,9.1,10.5,64,0.00,,,0.05,VWS V14.00,2014-01-06 10:13:00,
2014-01-06 05:18:00,32.8,22.0,29.65,WSW,245,0.0,0.0,64,0.00,,,0.05,VWS V14.00,2014-01-06 10:18:00,
2014-01-06 05:23:00,32.5,20.5,29.65,WSW,245,0.0,0.0,61,0.00,,,0.05,VWS V14.00,2014-01-06 10:23:00,
2014-01-06 05:28:00,32.3,20.8,29.65,WSW,245,0.0,0.0,62,0.00,,,0.05,VWS V14.00,2014-01-06 10:28:00,
2014-01-06 05:33:00,32.1,20.6,29.65,WSW,245,0.0,0.0,62,0.00,,,0.05,VWS V14.00,2014-01-06 10:33:00,
2014-01-06 05:38:00,31.9,20.0,29.65,WSW,245,0.0,0.0,61,0.00,,,0.05,VWS V14.00,2014-01-06 10:38:00,
2014-01-06 05:43:00,31.7,20.2,29.65,WSW,245,0.0,0.0,62,0.00,,,0.05,VWS V14.00,2014-01-06 10:43:00,
2014-01-06 05:48:00,31.6,20.4,29.65,WSW,245,0.0,0.0,63,0.00,,OVC100,0.05,VWS V14.00,2014-01-06 10:48:00,
2014-01-06 05:53:00,31.4,20.6,29.65,WSW,245,0.0,0.0,64,0.00,,OVC100,0.05,VWS V14.00,2014-01-06 10:53:00,
2014-01-06 05:59:00,31.2,20.8,29.65,WSW,245,0.0,0.0,65,0.00,,OVC100,0.05,VWS V14.00,2014-01-06 10:59:00,
2014-01-06 06:04:00,31.0,19.5,29.65,WSW,245,0.0,0.0,62,0.00,,,0.05,VWS V14.00,2014-01-06 11:04:00,
2014-01-06 06:09:00,30.6,19.9,29.65,WSW,245,0.0,0.0,64,0.00,,,0.05,VWS V14.00,2014-01-06 11:09:00,
2014-01-06 06:14:00,30.5,20.1,29.65,WSW,245,0.0,0.0,65,0.00,,,0.05,VWS V14.00,2014-01-06 11:14:00,
2014-01-06 06:19:00,30.3,19.6,29.65,WSW,245,0.0,0.0,64,0.00,,,0.05,VWS V14.00,2014-01-06 11:19:00,
2014-01-06 06:24:00,30.1,19.4,29.65,WSW,245,0.0,0.0,64,0.00,,,0.05,VWS V14.00,2014-01-06 11:24:00,
2014-01-06 06:29:00,29.7,19.8,29.65,WSW,245,0.0,0.0,66,0.00,,,0.05,VWS V14.00,2014-01-06 11:29:00,
2014-01-06 06:34:00,29.7,20.1,29.65,WSW,245,0.0,0.0,67,0.00,,,0.05,VWS V14.00,2014-01-06 11:34:00,
2014-01-06 06:39:00,29.4,18.7,29.65,WSW,245,0.0,0.0,64,0.00,,,0.05,VWS V14.00,2014-01-06 11:39:00,
2014-01-06 06:44:00,28.8,17.1,29.68,WSW,245,0.0,0.0,61,0.00,,,0.05,VWS V14.00,2014-01-06 11:44:00,
2014-01-06 06:49:00,28.6,17.6,29.68,WSW,245,0.0,0.0,63,0.00,,,0.05,VWS V14.00,2014-01-06 11:49:00,
2014-01-06 06:54:00,28.2,17.3,29.68,WSW,245,0.0,0.0,63,0.00,,,0.05,VWS V14.00,2014-01-06 11:54:00,
2014-01-06 06:59:00,28.1,17.1,29.68,WSW,245,0.0,0.0,63,0.00,,,0.05,VWS V14.00,2014-01-06 11:59:00,
2014-01-06 07:04:00,27.9,16.6,29.68,WSW,245,0.0,0.0,62,0.00,,,0.05,VWS V14.00,2014-01-06 12:04:00,
2014-01-06 07:10:00,27.7,16.4,29.68,WSW,245,0.0,0.0,62,0.00,,,0.05,VWS V14.00,2014-01-06 12:10:00,
2014-01-06 07:15:00,27.3,16.4,29.68,WSW,245,0.0,0.0,63,0.00,,,0.05,VWS V14.00,2014-01-06 12:15:00,
2014-01-06 07:20:00,27.1,16.2,29.68,WSW,245,0.0,0.0,63,0.00,,,0.05,VWS V14.00,2014-01-06 12:20:00,
2014-01-06 07:25:00,27.1,16.6,29.68,WSW,245,0.0,0.0,64,0.00,,,0.05,VWS V14.00,2014-01-06 12:25:00,
2014-01-06 07:30:00,27.0,16.1,29.71,WSW,245,0.0,0.0,63,0.00,,,0.05,VWS V14.00,2014-01-06 12:30:00,
2014-01-06 07:35:00,26.8,15.5,29.71,WSW,245,0.0,0.0,62,0.00,,,0.05,VWS V14.00,2014-01-06 12:35:00,
2014-01-06 07:40:00,26.4,16.6,29.71,WSW,245,0.0,0.0,66,0.00,,,0.05,VWS V14.00,2014-01-06 12:40:00,
2014-01-06 07:45:00,26.2,16.4,29.71,WSW,245,0.0,0.0,66,0.00,,,0.05,VWS V14.00,2014-01-06 12:45:00,
2014-01-06 07:50:00,25.9,14.7,29.71,WSW,245,0.0,0.0,62,0.00,,,0.05,VWS V14.00,2014-01-06 12:50:00,
2014-01-06 07:55:00,25.7,13.7,29.71,WSW,245,0.0,0.0,60,0.00,,,0.05,VWS V14.00,2014-01-06 12:55:00,
2014-01-06 08:00:00,25.7,14.5,29.71,WSW,245,0.0,0.0,62,0.00,,,0.05,VWS V14.00,2014-01-06 13:00:00,
2014-01-06 08:05:00,25.3,13.8,29.71,WSW,245,0.0,0.0,61,0.00,,,0.05,VWS V14.00,2014-01-06 13:05:00,
2014-01-06 08:10:00,25.1,13.2,29.71,WSW,245,0.0,0.0,60,0.00,,,0.05,VWS V14.00,2014-01-06 13:10:00,
2014-01-06 08:15:00,25.0,13.0,29.71,WSW,245,0.0,0.0,60,0.00,,,0.05,VWS V14.00,2014-01-06 13:15:00,
2014-01-06 08:20:00,25.0,13.0,29.71,WSW,245,0.0,0.0,60,0.00,,,0.05,VWS V14.00,2014-01-06 13:20:00,
2014-01-06 08:25:00,24.6,12.7,29.71,WSW,245,0.0,0.0,60,0.00,,,0.05,VWS V14.00,2014-01-06 13:25:00,
2014-01-06 08:31:00,24.6,12.3,29.74,WSW,245,0.0,0.0,59,0.00,,,0.05,VWS V14.00,2014-01-06 13:31:00,
2014-01-06 08:36:00,24.4,11.8,29.74,WSW,245,0.0,0.0,58,0.00,,,0.05,VWS V14.00,2014-01-06 13:36:00,
2014-01-06 08:41:00,24.2,11.6,29.74,WSW,245,0.0,0.0,58,0.00,,,0.05,VWS V14.00,2014-01-06 13:41:00,
2014-01-06 08:46:00,24.2,11.6,29.74,WSW,245,0.0,0.0,58,0.00,,,0.05,VWS V14.00,2014-01-06 13:46:00,
2014-01-06 08:51:00,23.9,11.6,29.74,WSW,245,0.0,0.0,59,0.00,,,0.05,VWS V14.00,2014-01-06 13:51:00,
2014-01-06 08:56:00,23.9,11.6,29.74,WSW,245,0.0,0.0,59,0.00,,,0.05,VWS V14.00,2014-01-06 13:56:00,
2014-01-06 09:01:00,23.7,11.8,29.74,WSW,245,0.0,0.0,60,0.00,,,0.05,VWS V14.00,2014-01-06 14:01:00,
2014-01-06 09:03:00,23.7,12.2,29.74,WSW,245,0.0,0.0,61,0.00,,,0.05,VWS V14.00,2014-01-06 14:03:00,
2014-01-06 09:08:00,23.7,12.6,29.74,WSW,245,0.0,0.0,62,0.00,,,0.05,VWS V14.00,2014-01-06 14:08:00,
2014-01-06 09:13:00,23.7,12.6,29.74,WSW,245,0.0,0.0,62,0.00,,,0.05,VWS V14.00,2014-01-06 14:13:00,
2014-01-06 09:18:00,23.9,12.0,29.74,WSW,245,0.0,0.0,60,0.00,,,0.05,VWS V14.00,2014-01-06 14:18:00,
2014-01-06 09:23:00,23.7,11.4,29.74,WSW,245,0.0,0.0,59,0.00,,,0.05,VWS V14.00,2014-01-06 14:23:00,
2014-01-06 09:28:00,23.9,11.2,29.74,WSW,245,0.0,0.0,58,0.00,,,0.05,VWS V14.00,2014-01-06 14:28:00,
2014-01-06 09:33:00,23.7,11.4,29.74,WSW,245,0.0,0.0,59,0.00,,,0.05,VWS V14.00,2014-01-06 14:33:00,
2014-01-06 09:38:00,23.7,11.4,29.74,WSW,245,0.0,0.0,59,0.00,,,0.05,VWS V14.00,2014-01-06 14:38:00,
2014-01-06 09:43:00,23.7,11.4,29.74,WSW,245,0.0,0.0,59,0.00,,,0.05,VWS V14.00,2014-01-06 14:43:00,
2014-01-06 09:48:00,23.7,11.4,29.74,WSW,245,0.0,0.0,59,0.00,,,0.05,VWS V14.00,2014-01-06 14:48:00,
2014-01-06 09:54:00,23.7,11.4,29.74,WSW,245,0.0,0.0,59,0.00,,,0.05,VWS V14.00,2014-01-06 14:54:00,
2014-01-06 09:59:00,23.7,10.7,29.74,WSW,245,0.0,0.0,57,0.00,,,0.05,VWS V14.00,2014-01-06 14:59:00,
2014-01-06 10:04:00,23.5,9.7,29.74,WSW,245,0.0,0.0,55,0.00,,,0.05,VWS V14.00,2014-01-06 15:04:00,
2014-01-06 10:09:00,23.3,9.5,29.74,WSW,245,0.0,0.0,55,0.00,,,0.05,VWS V14.00,2014-01-06 15:09:00,
2014-01-06 10:14:00,22.9,8.8,29.77,WSW,245,0.0,0.0,54,0.00,,,0.05,VWS V14.00,2014-01-06 15:14:00,
2014-01-06 10:19:00,22.8,8.6,29.77,WSW,245,0.0,0.0,54,0.00,,,0.05,VWS V14.00,2014-01-06 15:19:00,
2014-01-06 10:24:00,22.8,8.6,29.77,WSW,245,0.0,0.0,54,0.00,,,0.05,VWS V14.00,2014-01-06 15:24:00,
2014-01-06 10:29:00,22.4,8.3,29.77,WSW,245,0.0,0.0,54,0.00,,,0.05,VWS V14.00,2014-01-06 15:29:00,
2014-01-06 10:34:00,22.2,8.5,29.77,WSW,245,0.0,0.0,55,0.00,,,0.05,VWS V14.00,2014-01-06 15:34:00,
2014-01-06 10:39:00,22.0,7.9,29.77,WSW,245,0.0,0.0,54,0.00,,,0.05,VWS V14.00,2014-01-06 15:39:00,
2014-01-06 10:44:00,21.8,7.3,29.77,WSW,245,0.0,0.0,53,0.00,,,0.05,VWS V14.00,2014-01-06 15:44:00,
2014-01-06 10:49:00,21.3,6.8,29.77,WSW,245,0.0,0.0,53,0.00,,,0.05,VWS V14.00,2014-01-06 15:49:00,
2014-01-06 10:54:00,21.3,6.4,29.77,WSW,245,0.0,0.0,52,0.00,,,0.05,VWS V14.00,2014-01-06 15:54:00,
2014-01-06 11:00:00,21.5,7.0,29.77,WSW,245,0.0,0.0,53,0.00,,,0.05,VWS V14.00,2014-01-06 16:00:00,
2014-01-06 11:05:00,21.5,7.4,29.77,WSW,245,0.0,0.0,54,0.00,,,0.05,VWS V14.00,2014-01-06 16:05:00,
2014-01-06 11:10:00,21.3,6.8,29.77,WSW,245,0.0,0.0,53,0.00,,,0.05,VWS V14.00,2014-01-06 16:10:00,
2014-01-06 11:15:00,21.1,6.7,29.77,WSW,245,0.0,0.0,53,0.00,,,0.05,VWS V14.00,2014-01-06 16:15:00,
2014-01-06 11:20:00,20.7,5.5,29.77,WSW,245,0.0,0.0,51,0.00,,,0.05,VWS V14.00,2014-01-06 16:20:00,
2014-01-06 11:25:00,20.9,6.1,29.77,WSW,245,0.0,0.0,52,0.00,,,0.05,VWS V14.00,2014-01-06 16:25:00,
2014-01-06 11:30:00,20.9,6.1,29.77,WSW,245,0.0,0.0,52,0.00,,,0.05,VWS V14.00,2014-01-06 16:30:00,
2014-01-06 11:35:00,21.1,6.7,29.77,WSW,245,0.0,0.0,53,0.00,,,0.05,VWS V14.00,2014-01-06 16:35:00,
2014-01-06 11:40:00,20.9,6.1,29.77,WSW,245,0.0,0.0,52,0.00,,,0.05,VWS V14.00,2014-01-06 16:40:00,
2014-01-06 11:45:00,20.9,6.1,29.74,WSW,245,0.0,0.0,52,0.00,,,0.05,VWS V14.00,2014-01-06 16:45:00,
2014-01-06 11:50:00,21.5,6.6,29.74,WSW,245,0.0,0.0,52,0.00,,,0.05,VWS V14.00,2014-01-06 16:50:00,
2014-01-06 11:55:00,21.5,6.6,29.74,WSW,245,0.0,0.0,52,0.00,,,0.05,VWS V14.00,2014-01-06 16:55:00,
2014-01-06 12:00:00,21.3,6.0,29.74,West,262,0.0,0.0,51,0.00,,,0.05,VWS V14.00,2014-01-06 17:00:00,
2014-01-06 12:05:00,21.3,5.6,29.74,WSW,249,0.0,0.0,50,0.00,,,0.05,VWS V14.00,2014-01-06 17:05:00,
2014-01-06 12:11:00,21.1,5.4,29.74,West,268,0.0,0.0,50,0.00,,,0.05,VWS V14.00,2014-01-06 17:11:00,
2014-01-06 12:16:00,20.7,4.6,29.74,SW,226,0.0,0.0,49,0.00,,,0.05,VWS V14.00,2014-01-06 17:16:00,
2014-01-06 12:21:00,21.1,5.4,29.74,WSW,244,0.0,0.0,50,0.00,,,0.05,VWS V14.00,2014-01-06 17:21:00,
2014-01-06 12:26:00,20.7,4.6,29.74,WSW,254,0.0,0.0,49,0.00,,,0.05,VWS V14.00,2014-01-06 17:26:00,
2014-01-06 12:31:00,20.7,5.0,29.74,WSW,256,0.0,0.0,50,0.00,,,0.05,VWS V14.00,2014-01-06 17:31:00,
2014-01-06 12:36:00,20.2,4.1,29.74,WSW,244,0.0,0.0,49,0.00,,,0.05,VWS V14.00,2014-01-06 17:36:00,
2014-01-06 12:41:00,20.0,4.4,29.74,WSW,243,0.0,0.0,50,0.00,,,0.05,VWS V14.00,2014-01-06 17:41:00,
2014-01-06 12:46:00,20.2,4.5,29.74,WSW,254,0.0,0.0,50,0.00,,,0.05,VWS V14.00,2014-01-06 17:46:00,
2014-01-06 12:51:00,20.0,4.4,29.74,WSW,247,0.0,0.0,50,0.00,,,0.05,VWS V14.00,2014-01-06 17:51:00,
2014-01-06 12:56:00,19.6,4.0,29.74,WSW,250,0.0,0.0,50,0.00,,,0.05,VWS V14.00,2014-01-06 17:56:00,
2014-01-06 13:01:00,19.3,3.2,29.74,WNW,290,0.0,0.0,49,0.00,,,0.05,VWS V14.00,2014-01-06 18:01:00,
2014-01-06 13:06:00,18.7,2.3,29.74,West,259,0.0,0.0,48,0.00,,,0.05,VWS V14.00,2014-01-06 18:06:00,
2014-01-06 13:12:00,18.5,2.1,29.74,West,281,0.0,0.0,48,0.00,,,0.05,VWS V14.00,2014-01-06 18:12:00,
2014-01-06 13:17:00,18.3,1.9,29.74,WSW,251,0.0,0.0,48,0.00,,,0.05,VWS V14.00,2014-01-06 18:17:00,
2014-01-06 13:22:00,17.8,1.4,29.74,West,274,0.0,0.0,48,0.00,,,0.05,VWS V14.00,2014-01-06 18:22:00,
2014-01-06 13:27:00,17.4,1.1,29.74,West,262,0.0,0.0,48,0.00,,,0.05,VWS V14.00,2014-01-06 18:27:00,
2014-01-06 13:32:00,16.9,0.6,29.74,WSW,241,0.0,0.0,48,0.00,,,0.05,VWS V14.00,2014-01-06 18:32:00,
2014-01-06 13:37:00,16.5,0.2,29.74,WSW,247,0.0,0.0,48,0.00,,,0.05,VWS V14.00,2014-01-06 18:37:00,
2014-01-06 13:42:00,16.1,-0.1,29.74,West,262,0.0,0.0,48,0.00,,,0.05,VWS V14.00,2014-01-06 18:42:00,
2014-01-06 13:47:00,16.1,-0.1,29.74,WSW,246,0.0,0.0,48,0.00,,,0.05,VWS V14.00,2014-01-06 18:47:00,
2014-01-06 13:52:00,16.1,-0.1,29.74,WSW,238,0.0,0.0,48,0.00,,,0.05,VWS V14.00,2014-01-06 18:52:00,
2014-01-06 13:57:00,15.6,-0.6,29.74,West,275,0.0,0.0,48,0.00,,,0.05,VWS V14.00,2014-01-06 18:57:00,
2014-01-06 14:02:00,15.2,-0.9,29.77,WNW,288,0.0,0.0,48,0.00,,,0.05,VWS V14.00,2014-01-06 19:02:00,
2014-01-06 14:07:00,15.0,-1.1,29.77,West,275,0.0,0.0,48,0.00,,,0.05,VWS V14.00,2014-01-06 19:07:00,
2014-01-06 14:12:00,14.7,-1.5,29.77,WSW,241,0.0,0.0,48,0.00,,,0.05,VWS V14.00,2014-01-06 19:12:00,
2014-01-06 14:17:00,14.9,-1.3,29.77,West,262,0.0,0.0,48,0.00,,,0.05,VWS V14.00,2014-01-06 19:17:00,
2014-01-06 14:22:00,14.7,-1.5,29.77,NW,315,0.0,0.0,48,0.00,,,0.05,VWS V14.00,2014-01-06 19:22:00,
2014-01-06 14:27:00,14.3,-1.8,29.77,WNW,302,0.0,0.0,48,0.00,,,0.05,VWS V14.00,2014-01-06 19:27:00,
2014-01-06 14:32:00,14.3,-1.8,29.77,SSW,212,0.0,0.0,48,0.00,,,0.05,VWS V14.00,2014-01-06 19:32:00,
2014-01-06 14:38:00,13.9,-1.7,29.77,WSW,243,0.0,0.0,49,0.00,,,0.05,VWS V14.00,2014-01-06 19:38:00,
2014-01-06 14:43:00,13.6,-2.5,29.77,WNW,287,0.0,0.0,48,0.00,,,0.05,VWS V14.00,2014-01-06 19:43:00,
2014-01-06 14:48:00,13.6,-2.5,29.80,WNW,295,0.0,0.0,48,0.00,,,0.05,VWS V14.00,2014-01-06 19:48:00,
2014-01-06 14:53:00,13.6,-2.5,29.80,WSW,241,0.0,0.0,48,0.00,,,0.05,VWS V14.00,2014-01-06 19:53:00,
2014-01-06 14:58:00,13.9,-2.1,29.80,West,260,0.0,0.0,48,0.00,,,0.05,VWS V14.00,2014-01-06 19:58:00,
2014-01-06 15:03:00,13.6,-2.0,29.80,West,271,0.0,0.0,49,0.00,,,0.05,VWS V14.00,2014-01-06 20:03:00,
2014-01-06 15:08:00,13.4,-2.2,29.80,NW,309,0.0,0.0,49,0.00,,,0.05,VWS V14.00,2014-01-06 20:08:00,
2014-01-06 15:13:00,13.0,-3.0,29.80,West,277,0.0,0.0,48,0.00,,,0.05,VWS V14.00,2014-01-06 20:13:00,
2014-01-06 15:18:00,12.6,-3.3,29.80,WNW,282,0.0,0.0,48,0.00,,,0.05,VWS V14.00,2014-01-06 20:18:00,
2014-01-06 15:23:00,11.9,-4.0,29.80,WNW,296,0.0,0.0,48,0.00,,,0.05,VWS V14.00,2014-01-06 20:23:00,
2014-01-06 15:28:00,12.1,-3.8,29.83,WNW,287,0.0,0.0,48,0.00,,,0.05,VWS V14.00,2014-01-06 20:28:00,
2014-01-06 15:33:00,11.6,-4.3,29.83,WSW,253,0.0,0.0,48,0.00,,BKN033,0.05,VWS V14.00,2014-01-06 20:33:00,
2014-01-06 15:38:00,11.2,-4.7,29.83,WSW,249,0.0,0.0,48,0.00,,BKN033,0.05,VWS V14.00,2014-01-06 20:38:00,
2014-01-06 15:44:00,11.0,-4.8,29.83,WSW,253,0.0,0.0,48,0.00,,BKN033,0.05,VWS V14.00,2014-01-06 20:44:00,
2014-01-06 15:49:00,10.4,-5.3,29.83,West,277,0.0,0.0,48,0.00,,,0.05,VWS V14.00,2014-01-06 20:49:00,
2014-01-06 15:54:00,9.9,-5.9,29.83,West,275,0.0,0.0,48,0.00,,,0.05,VWS V14.00,2014-01-06 20:54:00,
2014-01-06 15:59:00,9.3,-6.4,29.83,NW,307,0.0,0.0,48,0.00,,,0.05,VWS V14.00,2014-01-06 20:59:00,
2014-01-06 16:04:00,9.3,-6.4,29.83,WSW,254,0.0,0.0,48,0.00,,,0.05,VWS V14.00,2014-01-06 21:04:00,
2014-01-06 16:09:00,8.8,-6.9,29.83,West,261,11.1,12.1,48,0.00,,,0.05,VWS V14.00,2014-01-06 21:09:00,
2014-01-06 16:14:00,8.6,-7.1,29.83,WNW,288,9.1,12.1,48,0.00,,,0.05,VWS V14.00,2014-01-06 21:14:00,
2014-01-06 16:19:00,8.4,-7.2,29.83,WSW,252,0.0,7.5,48,0.00,,,0.05,VWS V14.00,2014-01-06 21:19:00,
2014-01-06 16:24:00,8.2,-7.4,29.83,WNW,286,0.0,0.0,48,0.00,,,0.05,VWS V14.00,2014-01-06 21:24:00,
2014-01-06 16:29:00,7.7,-7.9,29.85,SW,225,0.0,0.0,48,0.00,,,0.05,VWS V14.00,2014-01-06 21:29:00,
2014-01-06 16:34:00,7.3,-8.2,29.85,NW,306,0.0,0.0,48,0.00,,FEW024,0.05,VWS V14.00,2014-01-06 21:34:00,
2014-01-06 16:39:00,6.8,-8.8,29.85,NW,306,0.0,0.0,48,0.00,,FEW024,0.05,VWS V14.00,2014-01-06 21:39:00,
2014-01-06 16:44:00,6.6,-8.9,29.85,SSW,207,0.0,9.1,48,0.00,,FEW024,0.05,VWS V14.00,2014-01-06 21:44:00,
2014-01-06 16:49:00,6.4,-9.1,29.85,WSW,241,0.0,12.6,48,0.00,,FEW024,0.05,VWS V14.00,2014-01-06 21:49:00,
2014-01-06 16:54:00,5.8,-9.6,29.85,WNW,296,9.1,12.1,48,0.00,,FEW024,0.05,VWS V14.00,2014-01-06 21:54:00,
2014-01-06 17:00:00,5.5,-9.9,29.85,WSW,240,9.6,10.5,48,0.00,,FEW024,0.05,VWS V14.00,2014-01-06 22:00:00,
2014-01-06 17:05:00,5.1,-10.3,29.85,West,268,10.6,11.5,48,0.00,,FEW024,0.05,VWS V14.00,2014-01-06 22:05:00,
2014-01-06 17:10:00,4.9,-10.4,29.85,West,281,8.9,9.7,48,0.00,,FEW024,0.05,VWS V14.00,2014-01-06 22:10:00,
2014-01-06 17:15:00,4.9,-10.4,29.85,West,274,3.4,7.5,48,0.00,,FEW024,0.05,VWS V14.00,2014-01-06 22:15:00,
2014-01-06 17:20:00,4.6,-10.8,29.85,SSW,197,0.0,9.7,48,0.00,,BKN028,0.05,VWS V14.00,2014-01-06 22:20:00,
2014-01-06 17:25:00,4.4,-11.0,29.85,West,264,5.4,5.9,48,0.00,,BKN028,0.05,VWS V14.00,2014-01-06 22:25:00,
2014-01-06 17:30:00,4.2,-11.1,29.85,WNW,297,5.4,13.2,48,0.00,,BKN028,0.05,VWS V14.00,2014-01-06 22:30:00,
2014-01-06 17:35:00,3.8,-11.5,29.85,West,262,8.4,12.6,48,0.00,,,0.05,VWS V14.00,2014-01-06 22:35:00,
2014-01-06 17:40:00,3.5,-11.8,29.85,WSW,257,9.6,10.5,48,0.00,,,0.05,VWS V14.00,2014-01-06 22:40:00,
2014-01-06 17:45:00,3.1,-12.1,29.88,SW,226,6.9,9.1,48,0.00,,,0.05,VWS V14.00,2014-01-06 22:45:00,
2014-01-06 17:50:00,2.7,-12.5,29.88,WSW,246,5.9,9.1,48,0.00,,,0.05,VWS V14.00,2014-01-06 22:50:00,
2014-01-06 17:55:00,2.5,-12.7,29.88,West,278,11.1,13.2,48,0.00,,,0.05,VWS V14.00,2014-01-06 22:55:00,
2014-01-06 18:00:00,2.2,-13.0,29.88,WSW,244,5.9,11.5,48,0.00,,,0.05,VWS V14.00,2014-01-06 23:00:00,
2014-01-06 18:06:00,2.2,-13.0,29.88,WSW,258,8.4,9.1,48,0.00,,,0.05,VWS V14.00,2014-01-06 23:06:00,
2014-01-06 18:11:00,2.0,-13.2,29.88,SW,235,3.0,14.8,48,0.00,,,0.05,VWS V14.00,2014-01-06 23:11:00,
2014-01-06 18:16:00,1.6,-13.5,29.88,WNW,283,8.9,14.8,48,0.00,,,0.05,VWS V14.00,2014-01-06 23:16:00,
2014-01-06 18:21:00,1.5,-13.7,29.88,West,274,6.4,12.1,48,0.00,,,0.05,VWS V14.00,2014-01-06 23:21:00,
2014-01-06 18:26:00,1.3,-13.9,29.88,West,265,6.4,9.1,48,0.00,,,0.05,VWS V14.00,2014-01-06 23:26:00,
2014-01-06 18:31:00,1.3,-13.9,29.91,West,261,4.9,7.5,48,0.00,,,0.05,VWS V14.00,2014-01-06 23:31:00,
2014-01-06 18:36:00,0.9,-14.2,29.91,West,260,5.9,9.7,48,0.00,,,0.05,VWS V14.00,2014-01-06 23:36:00,
2014-01-06 18:41:00,0.7,-14.4,29.91,West,270,12.1,13.2,48,0.00,,,0.05,VWS V14.00,2014-01-06 23:41:00,
2014-01-06 18:46:00,0.5,-14.5,29.91,West,273,8.4,12.1,48,0.00,,,0.05,VWS V14.00,2014-01-06 23:46:00,
2014-01-06 18:51:00,0.3,-14.7,29.91,NW,305,4.4,7.0,48,0.00,,,0.05,VWS V14.00,2014-01-06 23:51:00,
2014-01-06 18:56:00,0.0,-15.0,29.91,WSW,247,3.4,9.1,48,0.00,,,0.05,VWS V14.00,2014-01-06 23:56:00,
2014-01-06 19:01:00,-0.2,-15.2,29.91,WSW,246,8.4,9.9,48,0.00,,,0.05,VWS V14.00,2014-01-07 00:01:00,
2014-01-06 19:06:00,-0.4,-15.4,29.91,WNW,287,4.4,10.5,48,0.00,,,0.05,VWS V14.00,2014-01-07 00:06:00,
2014-01-06 19:11:00,-0.4,-15.4,29.91,WSW,251,11.1,16.4,48,0.00,,,0.05,VWS V14.00,2014-01-07 00:11:00,
2014-01-06 19:17:00,-0.8,-15.7,29.91,West,263,6.9,13.7,48,0.00,,,0.05,VWS V14.00,2014-01-07 00:17:00,
2014-01-06 19:22:00,-0.8,-15.7,29.91,West,273,7.9,9.7,48,0.00,,,0.05,VWS V14.00,2014-01-07 00:22:00,
2014-01-06 19:27:00,-1.1,-16.1,29.91,WNW,283,4.4,12.6,48,0.00,,,0.05,VWS V14.00,2014-01-07 00:27:00,
2014-01-06 19:32:00,-1.1,-16.1,29.94,West,261,9.6,10.5,48,0.00,,,0.05,VWS V14.00,2014-01-07 00:32:00,
2014-01-06 19:37:00,-1.3,-16.2,29.94,WSW,238,4.4,8.1,48,0.00,,,0.05,VWS V14.00,2014-01-07 00:37:00,
2014-01-06 19:42:00,-1.3,-16.2,29.94,WSW,252,8.9,10.5,48,0.00,,,0.05,VWS V14.00,2014-01-07 00:42:00,
2014-01-06 19:47:00,-1.7,-16.6,29.94,WSW,250,11.6,13.2,48,0.00,,,0.05,VWS V14.00,2014-01-07 00:47:00,
2014-01-06 19:52:00,-1.7,-16.6,29.94,West,268,13.5,14.8,48,0.00,,,0.05,VWS V14.00,2014-01-07 00:52:00,
2014-01-06 19:57:00,-1.7,-16.6,29.94,SW,228,6.9,15.3,48,0.00,,,0.05,VWS V14.00,2014-01-07 00:57:00,
2014-01-06 20:02:00,-1.9,-16.7,29.94,West,271,9.1,14.8,48,0.00,,SCT022,0.05,VWS V14.00,2014-01-07 01:02:00,
2014-01-06 20:07:00,-2.0,-16.9,29.94,SW,235,10.6,12.6,48,0.00,,SCT022,0.05,VWS V14.00,2014-01-07 01:07:00,
2014-01-06 20:12:00,-2.2,-17.1,29.94,South,185,9.6,16.4,48,0.00,,SCT022,0.05,VWS V14.00,2014-01-07 01:12:00,
2014-01-06 20:17:00,-2.4,-17.2,29.94,West,262,9.6,12.6,48,0.00,,SCT022,0.05,VWS V14.00,2014-01-07 01:17:00,
2014-01-06 20:22:00,-2.6,-17.4,29.94,WSW,246,9.6,14.2,48,0.00,,SCT022,0.05,VWS V14.00,2014-01-07 01:22:00,
2014-01-06 20:27:00,-2.6,-17.4,29.94,West,281,6.4,12.1,48,0.00,,SCT022,0.05,VWS V14.00,2014-01-07 01:27:00,
2014-01-06 20:33:00,-2.8,-17.6,29.94,West,270,9.1,13.2,48,0.00,,SCT022,0.05,VWS V14.00,2014-01-07 01:33:00,
2014-01-06 20:38:00,-3.0,-17.8,29.94,West,268,6.9,9.7,48,0.00,,SCT022,0.05,VWS V14.00,2014-01-07 01:38:00,
2014-01-06 20:43:00,-3.1,-17.9,29.94,WNW,292,12.1,14.8,48,0.00,,SCT022,0.05,VWS V14.00,2014-01-07 01:43:00,
2014-01-06 20:48:00,-3.3,-18.1,29.94,NNW,328,9.6,12.1,48,0.00,,BKN030,0.05,VWS V14.00,2014-01-07 01:48:00,
2014-01-06 20:53:00,-3.3,-18.1,29.94,WSW,254,10.1,11.0,48,0.00,,BKN030,0.05,VWS V14.00,2014-01-07 01:53:00,
2014-01-06 20:58:00,-3.5,-18.3,29.94,West,259,12.5,15.8,48,0.00,,BKN030,0.05,VWS V14.00,2014-01-07 01:58:00,
2014-01-06 21:03:00,-3.9,-18.6,29.97,SW,230,12.5,18.0,48,0.00,,OVC030,0.05,VWS V14.00,2014-01-07 02:03:00,
2014-01-06 21:08:00,-4.1,-18.8,29.97,WNW,298,13.0,15.8,48,0.00,,OVC030,0.05,VWS V14.00,2014-01-07 02:08:00,
2014-01-06 21:13:00,-4.2,-19.0,29.97,WNW,282,19.2,24.2,48,0.00,,OVC030,0.05,VWS V14.00,2014-01-07 02:13:00,
2014-01-06 21:18:00,-4.4,-19.1,29.97,WSW,237,13.5,14.8,48,0.00,,OVC030,0.05,VWS V14.00,2014-01-07 02:18:00,
2014-01-06 21:23:00,-4.6,-19.3,29.97,WSW,246,11.6,12.6,48,0.00,,OVC030,0.05,VWS V14.00,2014-01-07 02:23:00,
2014-01-06 21:28:00,-4.8,-19.5,29.97,WSW,248,12.1,16.4,48,0.00,,OVC030,0.05,VWS V14.00,2014-01-07 02:28:00,
2014-01-06 21:33:00,-5.0,-19.6,29.97,SW,229,9.6,10.5,48,0.00,,OVC030,0.05,VWS V14.00,2014-01-07 02:33:00,
2014-01-06 21:38:00,-5.2,-19.8,29.97,WSW,251,12.1,13.7,48,0.00,,OVC030,0.05,VWS V14.00,2014-01-07 02:38:00,
2014-01-06 21:43:00,-5.2,-19.8,29.97,WNW,288,14.5,16.4,48,0.00,,OVC030,0.05,VWS V14.00,2014-01-07 02:43:00,
2014-01-06 21:49:00,-5.3,-20.0,29.97,WNW,302,8.4,12.6,48,0.00,,OVC030,0.05,VWS V14.00,2014-01-07 02:49:00,
2014-01-06 21:54:00,-5.5,-20.1,29.97,WNW,285,11.6,15.3,48,0.00,,OVC030,0.05,VWS V14.00,2014-01-07 02:54:00,
2014-01-06 21:59:00,-5.5,-20.1,30.00,SW,234,9.6,13.2,48,0.00,,OVC030,0.05,VWS V14.00,2014-01-07 02:59:00,
2014-01-06 22:04:00,-5.5,-20.1,30.00,West,265,9.1,15.3,48,0.00,,OVC023,0.05,VWS V14.00,2014-01-07 03:04:00,
2014-01-06 22:09:00,-5.7,-20.3,30.00,West,262,11.6,14.8,48,0.00,,OVC023,0.05,VWS V14.00,2014-01-07 03:09:00,
2014-01-06 22:14:00,-5.9,-20.5,30.00,WSW,257,12.1,13.2,48,0.00,,OVC023,0.05,VWS V14.00,2014-01-07 03:14:00,
2014-01-06 22:19:00,-5.9,-20.5,30.00,WSW,250,11.6,14.8,48,0.00,,,0.05,VWS V14.00,2014-01-07 03:19:00,
2014-01-06 22:24:00,-5.9,-20.5,30.00,NW,316,6.9,12.6,48,0.00,,,0.05,VWS V14.00,2014-01-07 03:24:00,
2014-01-06 22:29:00,-5.9,-20.5,30.00,WSW,239,6.9,10.5,48,0.00,,,0.05,VWS V14.00,2014-01-07 03:29:00,
2014-01-06 22:34:00,-5.9,-20.5,30.00,West,264,12.1,18.0,48,0.00,,,0.05,VWS V14.00,2014-01-07 03:34:00,
2014-01-06 22:39:00,-6.1,-20.7,30.00,WSW,239,8.9,10.5,48,0.00,,,0.05,VWS V14.00,2014-01-07 03:39:00,
2014-01-06 22:44:00,-6.1,-20.7,30.00,NW,308,9.1,12.6,48,0.00,,,0.05,VWS V14.00,2014-01-07 03:44:00,
2014-01-06 22:49:00,-6.3,-20.8,30.00,West,265,14.0,15.3,48,0.00,,,0.05,VWS V14.00,2014-01-07 03:49:00,
2014-01-06 22:54:00,-6.4,-21.0,30.00,West,265,9.6,12.6,48,0.00,,,0.05,VWS V14.00,2014-01-07 03:54:00,
2014-01-06 23:00:00,-6.4,-21.0,30.00,WSW,248,9.6,10.5,48,0.00,,,0.05,VWS V14.00,2014-01-07 04:00:00,
2014-01-06 23:05:00,-6.4,-21.0,30.00,WSW,244,8.9,17.4,48,0.00,,,0.05,VWS V14.00,2014-01-07 04:05:00,
2014-01-06 23:10:00,-6.4,-21.0,30.00,West,280,6.4,14.8,48,0.00,,,0.05,VWS V14.00,2014-01-07 04:10:00,
2014-01-06 23:15:00,-6.6,-21.2,30.00,NW,312,15.0,19.6,48,0.00,,,0.05,VWS V14.00,2014-01-07 04:15:00,
2014-01-06 23:20:00,-6.6,-21.2,30.00,WSW,254,9.6,14.2,48,0.00,,,0.05,VWS V14.00,2014-01-07 04:20:00,
2014-01-06 23:25:00,-6.8,-21.3,30.00,West,278,14.0,15.3,48,0.00,,,0.05,VWS V14.00,2014-01-07 04:25:00,
2014-01-06 23:30:00,-6.8,-21.3,30.00,West,267,14.0,15.3,48,0.00,,,0.05,VWS V14.00,2014-01-07 04:30:00,
2014-01-06 23:35:00,-6.8,-21.3,30.00,West,262,8.4,14.8,48,0.00,,,0.05,VWS V14.00,2014-01-07 04:35:00,
2014-01-06 23:40:00,-6.8,-21.3,30.00,WSW,256,8.9,12.1,48,0.00,,,0.05,VWS V14.00,2014-01-07 04:40:00,
2014-01-06 23:45:00,-6.8,-21.3,30.00,West,274,11.6,12.6,48,0.00,,,0.05,VWS V14.00,2014-01-07 04:45:00,
2014-01-06 23:50:00,-7.0,-21.5,30.00,SW,235,13.5,14.8,48,0.00,,,0.05,VWS V14.00,2014-01-07 04:50:00,
2014-01-06 23:55:00,-7.0,-21.5,30.00,West,264,6.9,12.6,48,0.00,,,0.05,VWS V14.00,2014-01-07 04:55:00,